Time;durP1;ratioP1;P1;durP2;ratioP2;P2;SDS_P1;SDS_P2;PMS_P1;PMS_P2;Temp;Humidity;BMP_temperature;BMP_pressure;BME280_temperature;BME280_humidity;BME280_pressure;Samples;Min_cycle;Max_cycle;Signal;HPM_P1;HPM_P2
2021/09/19 00:00:40;;;;;;;;;;;;;;;12.52;90.41;99449.81;5012384;28;838;-59
2021/09/19 00:03:07;;;;;;;;;;;;;;;12.50;89.90;99443.91;5012365;28;791;-59
2021/09/19 00:05:33;;;;;;;;;;;;;;;12.34;89.59;99450.94;5012314;28;831;-59
2021/09/19 00:08:00;;;;;;;;;;;;;;;12.08;89.99;99447.03;5012224;28;867;-59
2021/09/19 00:10:26;;;;;;;;;;;;;;;11.94;90.50;99450.03;5012267;28;959;-59
2021/09/19 00:12:53;;;;;;;;;;;;;;;12.16;90.29;99453.22;5012211;28;1890;-59
2021/09/19 00:15:20;;;;;;;;;;;;;;;12.52;88.88;99458.91;5012151;28;847;-59
2021/09/19 00:17:48;;;;;;;;;;;;;;;12.87;87.27;99454.69;5012161;28;1425;-59
2021/09/19 00:20:15;;;;;;;;;;;;;;;13.07;86.39;99460.22;5012287;28;827;-59
2021/09/19 00:22:42;;;;;;;;;;;;;;;13.14;87.66;99461.28;5011998;28;819;-59
2021/09/19 00:25:10;;;;;;;;;;;;;;;13.12;86.92;99460.94;5012321;28;835;-59
2021/09/19 00:27:37;;;;;;;;;;;;;;;13.13;87.65;99457.75;5012084;28;870;-59
2021/09/19 00:30:05;;;;;;;;;;;;;;;13.08;87.89;99449.94;5011978;28;846;-59
2021/09/19 00:32:31;;;;;;;;;;;;;;;13.06;86.86;99450.34;5011895;28;1906;-59
2021/09/19 00:34:58;;;;;;;;;;;;;;;13.13;87.64;99459.75;5011923;28;846;-59
2021/09/19 00:37:24;;;;;;;;;;;;;;;12.96;87.72;99440.25;5011801;28;926;-59
2021/09/19 00:39:51;;;;;;;;;;;;;;;12.87;88.03;99448.38;5011916;28;851;-59
2021/09/19 00:42:17;;;;;;;;;;;;;;;12.86;88.25;99447.56;5011845;28;823;-59
2021/09/19 00:44:44;;;;;;;;;;;;;;;12.94;87.51;99439.91;5011941;28;823;-59
2021/09/19 00:47:11;;;;;;;;;;;;;;;12.94;87.73;99437.13;5011820;28;808;-59
2021/09/19 00:49:37;;;;;;;;;;;;;;;13.07;88.16;99440.03;5011957;28;835;-59
2021/09/19 00:52:04;;;;;;;;;;;;;;;13.04;87.86;99438.91;5011677;28;1949;-59
2021/09/19 00:54:36;;;;;;;;;;;;;;;12.81;87.97;99445.31;5011674;28;859;-59
2021/09/19 00:57:06;;;;;;;;;;;;;;;12.53;88.33;99437.53;5011588;28;882;-60
2021/09/19 00:59:35;;;;;;;;;;;;;;;12.29;88.73;99425.69;5011628;28;875;-59
2021/09/19 01:02:02;;;;;;;;;;;;;;;12.13;89.23;99435.47;5011829;28;847;-59
2021/09/19 01:04:28;;;;;;;;;;;;;;;12.11;90.05;99434.31;4993966;28;1157;-59
2021/09/19 01:06:54;;;;;;;;;;;;;;;12.15;89.75;99433.06;5012554;28;894;-59
2021/09/19 01:09:21;;;;;;;;;;;;;;;12.48;89.42;99430.47;5015476;28;862;-59
2021/09/19 01:11:47;;;;;;;;;;;;;;;13.07;87.56;99426.16;5015409;28;1946;-59
2021/09/19 01:14:15;;;;;;;;;;;;;;;13.24;87.07;99436.09;5015656;28;878;-59
2021/09/19 01:16:43;;;;;;;;;;;;;;;13.41;86.19;99430.63;5015539;28;966;-59
2021/09/19 01:19:17;;;;;;;;;;;;;;;13.74;83.97;99428.69;5015103;28;1389;-59
2021/09/19 01:21:44;;;;;;;;;;;;;;;14.10;81.22;99419.44;5015356;28;847;-59
2021/09/19 01:24:10;;;;;;;;;;;;;;;14.47;76.52;99428.44;5015225;28;897;-59
2021/09/19 01:26:37;;;;;;;;;;;;;;;14.67;73.93;99431.09;5015185;28;827;-60
2021/09/19 01:29:04;;;;;;;;;;;;;;;14.81;73.45;99427.91;5015241;28;862;-59
2021/09/19 01:31:30;;;;;;;;;;;;;;;14.77;72.86;99426.47;5015043;28;1906;-59
2021/09/19 01:33:57;;;;;;;;;;;;;;;14.77;71.50;99424.44;5015274;28;867;-59
2021/09/19 01:36:23;;;;;;;;;;;;;;;14.80;71.37;99425.56;5015217;28;792;-59
2021/09/19 01:38:50;;;;;;;;;;;;;;;14.84;71.00;99421.47;5015215;28;795;-59
2021/09/19 01:41:18;;;;;;;;;;;;;;;14.95;70.31;99420.38;5015255;28;909;-60
2021/09/19 01:43:45;;;;;;;;;;;;;;;15.00;70.08;99417.84;5015077;28;843;-59
2021/09/19 01:46:12;;;;;;;;;;;;;;;15.11;69.34;99414.75;5015268;28;780;-59
2021/09/19 01:48:37;;;;;;;;;;;;;;;15.13;70.37;99408.72;5015066;28;974;-59
2021/09/19 01:51:06;;;;;;;;;;;;;;;15.01;70.94;99415.84;5014981;28;909;-59
2021/09/19 01:53:32;;;;;;;;;;;;;;;14.76;70.77;99397.06;5014818;28;1942;-60
2021/09/19 01:55:59;;;;;;;;;;;;;;;14.80;72.79;99409.66;5015081;28;787;-59
2021/09/19 01:58:26;;;;;;;;;;;;;;;14.69;74.99;99414.75;5015103;28;846;-59
2021/09/19 02:00:56;;;;;;;;;;;;;;;14.60;75.41;99411.81;5015348;28;747;-59
2021/09/19 02:03:23;;;;;;;;;;;;;;;14.59;74.00;99416.59;5014549;28;858;-59
2021/09/19 02:05:50;;;;;;;;;;;;;;;14.60;72.72;99407.03;5014481;28;858;-59
2021/09/19 02:08:17;;;;;;;;;;;;;;;14.64;74.90;99412.50;5014680;28;799;-59
2021/09/19 02:10:44;;;;;;;;;;;;;;;14.58;74.59;99417.03;5014585;28;812;-59
2021/09/19 02:13:10;;;;;;;;;;;;;;;14.60;75.84;99409.03;5014393;28;1890;-59
2021/09/19 02:15:38;;;;;;;;;;;;;;;14.55;72.93;99409.53;5014325;28;1047;-59
2021/09/19 02:18:05;;;;;;;;;;;;;;;14.54;73.32;99413.56;5013808;28;1234;-59
2021/09/19 02:20:34;;;;;;;;;;;;;;;14.52;72.24;99408.41;5013826;28;879;-59
2021/09/19 02:23:02;;;;;;;;;;;;;;;14.60;70.28;99407.03;4996492;28;1312;-59
2021/09/19 02:25:29;;;;;;;;;;;;;;;14.73;70.41;99400.75;5014344;28;870;-59
2021/09/19 02:27:56;;;;;;;;;;;;;;;14.80;68.95;99401.31;5014111;28;811;-59
2021/09/19 02:30:22;;;;;;;;;;;;;;;14.95;68.44;99412.03;5014085;28;784;-59
2021/09/19 02:32:49;;;;;;;;;;;;;;;15.02;68.69;99415.41;4996405;28;1910;-59
2021/09/19 02:35:16;;;;;;;;;;;;;;;15.01;70.59;99405.47;5013931;28;847;-59
2021/09/19 02:37:43;;;;;;;;;;;;;;;15.05;69.10;99408.16;5013903;28;995;-59
2021/09/19 02:40:10;;;;;;;;;;;;;;;15.12;68.51;99396.81;5013888;28;890;-59
2021/09/19 02:42:37;;;;;;;;;;;;;;;15.20;69.66;99405.72;5013791;28;874;-59
2021/09/19 02:45:04;;;;;;;;;;;;;;;15.15;72.01;99409.84;5013812;28;799;-59
2021/09/19 02:47:31;;;;;;;;;;;;;;;15.03;72.22;99416.16;5013854;28;843;-59
2021/09/19 02:49:57;;;;;;;;;;;;;;;14.90;75.83;99411.34;5013692;28;847;-59
2021/09/19 02:52:24;;;;;;;;;;;;;;;14.81;76.14;99416.78;5013565;28;1938;-59
2021/09/19 02:54:51;;;;;;;;;;;;;;;14.81;74.70;99422.34;5013521;28;874;-59
2021/09/19 02:57:18;;;;;;;;;;;;;;;14.81;75.45;99414.00;5013526;28;787;-59
2021/09/19 02:59:45;;;;;;;;;;;;;;;14.86;76.67;99419.03;5013534;28;843;-59
2021/09/19 03:02:11;;;;;;;;;;;;;;;14.65;78.00;99412.06;5013434;28;796;-59
2021/09/19 03:04:38;;;;;;;;;;;;;;;14.22;79.35;99415.97;5013686;28;839;-59
2021/09/19 03:07:04;;;;;;;;;;;;;;;13.85;80.49;99420.84;5013323;28;866;-59
2021/09/19 03:09:31;;;;;;;;;;;;;;;13.61;80.59;99420.25;5013291;28;846;-59
2021/09/19 03:11:58;;;;;;;;;;;;;;;13.47;81.28;99432.44;5013247;28;1878;-59
2021/09/19 03:14:24;;;;;;;;;;;;;;;13.32;83.06;99439.53;5013137;28;1009;-59
2021/09/19 03:16:51;;;;;;;;;;;;;;;13.23;84.22;99450.41;5013593;28;935;-58
2021/09/19 03:19:18;;;;;;;;;;;;;;;13.24;84.67;99449.19;5012943;28;1398;-59
2021/09/19 03:21:44;;;;;;;;;;;;;;;13.23;84.81;99465.06;5013298;28;811;-59
2021/09/19 03:24:11;;;;;;;;;;;;;;;13.30;85.16;99449.50;5013156;28;803;-59
2021/09/19 03:26:37;;;;;;;;;;;;;;;13.37;85.14;99457.66;5013295;28;808;-59
2021/09/19 03:29:04;;;;;;;;;;;;;;;13.38;84.87;99456.47;5013349;28;827;-59
2021/09/19 03:31:30;;;;;;;;;;;;;;;13.40;84.95;99454.81;5012104;28;1906;-59
2021/09/19 03:33:57;;;;;;;;;;;;;;;13.42;85.34;99457.16;5012873;28;831;-59
2021/09/19 03:36:24;;;;;;;;;;;;;;;13.40;85.43;99457.59;5012755;28;835;-59
2021/09/19 03:38:49;;;;;;;;;;;;;;;13.47;85.50;99453.88;5012786;28;823;-59
2021/09/19 03:41:16;;;;;;;;;;;;;;;13.58;85.25;99451.63;5012735;28;858;-59
2021/09/19 03:43:43;;;;;;;;;;;;;;;13.65;85.16;99459.03;5012944;28;910;-59
2021/09/19 03:46:09;;;;;;;;;;;;;;;13.71;85.17;99464.84;5012646;28;894;-59
2021/09/19 03:48:36;;;;;;;;;;;;;;;13.76;84.65;99470.69;5012614;28;811;-59
2021/09/19 03:51:03;;;;;;;;;;;;;;;13.84;83.93;99477.63;5012655;28;799;-59
2021/09/19 03:53:28;;;;;;;;;;;;;;;13.94;82.78;99475.81;5012363;28;1925;-59
2021/09/19 03:55:55;;;;;;;;;;;;;;;14.01;81.29;99478.41;5012493;28;819;-59
2021/09/19 03:58:25;;;;;;;;;;;;;;;14.05;81.79;99484.66;5012428;28;890;-59
2021/09/19 04:00:51;;;;;;;;;;;;;;;14.02;82.27;99482.75;5012416;28;795;-59
2021/09/19 04:03:18;;;;;;;;;;;;;;;13.95;83.11;99479.38;5012355;28;855;-59
2021/09/19 04:05:44;;;;;;;;;;;;;;;13.83;83.84;99484.41;5012465;28;847;-59
2021/09/19 04:08:11;;;;;;;;;;;;;;;13.67;84.52;99484.38;5012480;28;799;-59
2021/09/19 04:10:38;;;;;;;;;;;;;;;13.54;85.17;99484.25;5012263;28;823;-59
2021/09/19 04:13:04;;;;;;;;;;;;;;;13.50;85.90;99480.78;5012117;28;1949;-59
2021/09/19 04:15:31;;;;;;;;;;;;;;;13.54;85.81;99477.94;5012159;28;1142;-59
2021/09/19 04:17:57;;;;;;;;;;;;;;;13.51;86.04;99479.56;5012273;28;811;-59
2021/09/19 04:20:24;;;;;;;;;;;;;;;13.45;86.33;99476.50;5011886;28;1301;-59
2021/09/19 04:22:51;;;;;;;;;;;;;;;13.40;86.67;99492.88;5012238;28;827;-59
2021/09/19 04:25:17;;;;;;;;;;;;;;;13.41;87.04;99489.69;5012009;28;866;-59
2021/09/19 04:27:44;;;;;;;;;;;;;;;13.47;87.37;99490.75;5012031;28;811;-59
2021/09/19 04:30:11;;;;;;;;;;;;;;;13.53;87.21;99498.56;5011981;28;799;-59
2021/09/19 04:32:37;;;;;;;;;;;;;;;13.53;87.02;99507.69;5012027;28;1914;-59
2021/09/19 04:35:04;;;;;;;;;;;;;;;13.53;87.05;99504.09;5011919;28;819;-59
2021/09/19 04:37:30;;;;;;;;;;;;;;;13.59;87.23;99503.19;5011922;28;827;-59
2021/09/19 04:39:57;;;;;;;;;;;;;;;13.78;87.33;99509.13;5011820;28;846;-59
2021/09/19 04:42:24;;;;;;;;;;;;;;;14.06;86.99;99502.09;5011538;28;807;-59
2021/09/19 04:44:51;;;;;;;;;;;;;;;14.35;86.39;99516.09;5011776;28;799;-59
2021/09/19 04:47:17;;;;;;;;;;;;;;;14.65;85.61;99516.97;5011752;28;858;-59
2021/09/19 04:49:44;;;;;;;;;;;;;;;14.90;84.86;99503.19;5011792;28;874;-59
2021/09/19 04:52:11;;;;;;;;;;;;;;;15.09;84.37;99509.03;5011571;28;1890;-59
2021/09/19 04:54:37;;;;;;;;;;;;;;;15.22;84.22;99506.28;4993990;28;1173;-59
2021/09/19 04:57:04;;;;;;;;;;;;;;;15.32;84.17;99511.56;5011856;28;840;-59
2021/09/19 04:59:31;;;;;;;;;;;;;;;15.42;83.88;99520.03;5011867;28;899;-59
2021/09/19 05:01:57;;;;;;;;;;;;;;;15.37;83.47;99517.78;5011612;28;855;-59
2021/09/19 05:04:24;;;;;;;;;;;;;;;15.33;83.64;99523.47;4994047;28;1177;-59
2021/09/19 05:06:51;;;;;;;;;;;;;;;15.43;83.91;99527.16;5011590;28;898;-59
2021/09/19 05:09:17;;;;;;;;;;;;;;;15.56;83.63;99519.59;5011750;28;799;-59
2021/09/19 05:16:55;;;;;;;;;;;;;;;15.89;81.87;99525.78;5580562;22;1684;-68
2021/09/19 05:19:21;;;;;;;;;;;;;;;16.09;81.77;99539.50;5031323;28;889;-68
2021/09/19 05:21:48;;;;;;;;;;;;;;;16.31;81.26;99536.81;5031547;28;865;-68
2021/09/19 05:24:15;;;;;;;;;;;;;;;16.54;81.12;99530.06;5031210;28;811;-68
2021/09/19 05:26:41;;;;;;;;;;;;;;;16.75;80.92;99533.38;5031241;28;881;-68
2021/09/19 05:29:08;;;;;;;;;;;;;;;17.00;80.75;99531.75;5031166;28;822;-68
2021/09/19 05:31:33;;;;;;;;;;;;;;;17.31;80.07;99540.19;5031093;28;1906;-68
2021/09/19 05:34:03;;;;;;;;;;;;;;;17.59;79.43;99537.56;5031150;28;814;-68
2021/09/19 05:36:30;;;;;;;;;;;;;;;17.72;79.10;99536.25;5031147;28;819;-68
2021/09/19 05:38:57;;;;;;;;;;;;;;;17.67;77.60;99531.25;5031030;28;858;-68
2021/09/19 05:41:24;;;;;;;;;;;;;;;17.58;78.23;99536.81;5031291;28;786;-68
2021/09/19 05:43:50;;;;;;;;;;;;;;;17.60;78.47;99528.72;5013295;28;941;-68
2021/09/19 05:46:18;;;;;;;;;;;;;;;17.80;78.53;99522.78;5013100;28;1394;-68
2021/09/19 05:48:45;;;;;;;;;;;;;;;18.09;77.89;99530.06;5031298;28;878;-68
2021/09/19 05:51:11;;;;;;;;;;;;;;;18.40;77.45;99530.00;5030960;28;846;-68
2021/09/19 05:53:38;;;;;;;;;;;;;;;18.65;76.96;99534.56;5031252;28;1897;-68
2021/09/19 05:56:05;;;;;;;;;;;;;;;18.73;76.18;99530.22;5034523;28;950;-68
2021/09/19 05:58:32;;;;;;;;;;;;;;;18.76;75.98;99534.09;5034488;28;787;-68
2021/09/19 06:00:59;;;;;;;;;;;;;;;18.84;75.74;99537.38;5034384;28;858;-68
2021/09/19 06:03:25;;;;;;;;;;;;;;;18.91;75.44;99534.28;5034467;28;798;-68
2021/09/19 06:05:51;;;;;;;;;;;;;;;19.00;75.48;99534.28;5034318;28;818;-68
2021/09/19 06:08:19;;;;;;;;;;;;;;;19.09;75.47;99536.31;5034282;28;854;-68
2021/09/19 06:10:45;;;;;;;;;;;;;;;19.17;75.05;99538.31;5034205;28;890;-68
2021/09/19 06:13:10;;;;;;;;;;;;;;;19.13;75.39;99536.91;5034130;28;1959;-68
2021/09/19 06:15:37;;;;;;;;;;;;;;;19.15;75.34;99532.41;5034060;28;899;-68
2021/09/19 06:18:03;;;;;;;;;;;;;;;19.20;75.46;99531.00;5033928;28;1227;-68
2021/09/19 06:20:30;;;;;;;;;;;;;;;19.29;75.22;99525.41;5034088;28;890;-68
2021/09/19 06:22:57;;;;;;;;;;;;;;;19.40;74.82;99533.31;5034017;28;846;-68
2021/09/19 06:25:23;;;;;;;;;;;;;;;19.44;73.94;99530.34;5034041;28;819;-68
2021/09/19 06:27:49;;;;;;;;;;;;;;;19.53;73.51;99524.72;5034033;28;869;-68
2021/09/19 06:30:16;;;;;;;;;;;;;;;19.64;71.16;99524.22;5033892;28;799;-68
2021/09/19 06:32:43;;;;;;;;;;;;;;;19.68;71.63;99533.25;5033864;28;1910;-68
2021/09/19 06:35:10;;;;;;;;;;;;;;;19.64;70.21;99535.44;5033733;28;810;-68
2021/09/19 06:37:37;;;;;;;;;;;;;;;19.70;69.23;99528.75;5033761;28;885;-68
2021/09/19 06:40:04;;;;;;;;;;;;;;;19.85;69.03;99540.06;5033731;28;862;-68
2021/09/19 06:42:31;;;;;;;;;;;;;;;20.04;70.73;99532.38;5033680;28;975;-68
2021/09/19 06:44:58;;;;;;;;;;;;;;;20.26;68.57;99520.88;5033459;28;838;-68
2021/09/19 06:47:25;;;;;;;;;;;;;;;20.49;64.22;99538.97;5033709;28;827;-68
2021/09/19 06:49:52;;;;;;;;;;;;;;;20.82;65.77;99531.78;5033535;28;870;-68
2021/09/19 06:52:20;;;;;;;;;;;;;;;21.35;65.62;99537.38;5033662;28;1889;-68
2021/09/19 06:54:46;;;;;;;;;;;;;;;21.92;65.51;99539.16;5033520;28;831;-68
2021/09/19 06:57:13;;;;;;;;;;;;;;;22.49;65.29;99537.97;5033429;28;881;-68
2021/09/19 06:59:39;;;;;;;;;;;;;;;24.14;60.34;99544.81;5033337;28;831;-68
2021/09/19 07:02:07;;;;;;;;;;;;;;;24.83;59.77;99544.66;5033307;28;901;-68
2021/09/19 07:04:34;;;;;;;;;;;;;;;24.96;55.33;99549.84;5033025;28;803;-68
2021/09/19 07:07:00;;;;;;;;;;;;;;;24.26;59.32;99548.47;5033147;28;977;-68
2021/09/19 07:09:27;;;;;;;;;;;;;;;23.49;62.00;99552.94;5033242;28;831;-68
2021/09/19 07:11:54;;;;;;;;;;;;;;;23.15;64.27;99549.78;5033087;28;1975;-68
2021/09/19 07:14:21;;;;;;;;;;;;;;;23.01;66.43;99552.19;5032921;28;802;-68
2021/09/19 07:16:47;;;;;;;;;;;;;;;22.79;66.70;99554.75;5033177;28;1449;-68
2021/09/19 07:19:14;;;;;;;;;;;;;;;22.75;68.00;99554.16;5032964;28;818;-67
2021/09/19 07:21:41;;;;;;;;;;;;;;;22.66;66.47;99555.09;5032882;28;881;-68
2021/09/19 07:24:07;;;;;;;;;;;;;;;22.42;64.72;99564.50;5032920;28;830;-68
2021/09/19 07:26:33;;;;;;;;;;;;;;;22.12;63.41;99555.31;5032888;28;814;-68
2021/09/19 07:29:01;;;;;;;;;;;;;;;22.11;65.24;99558.63;5032982;28;979;-68
2021/09/19 07:31:27;;;;;;;;;;;;;;;22.07;67.00;99556.00;5032818;28;889;-68
2021/09/19 07:33:54;;;;;;;;;;;;;;;22.15;65.34;99562.78;5032683;28;1910;-68
2021/09/19 07:36:24;;;;;;;;;;;;;;;22.19;68.03;99573.81;5032787;28;850;-68
2021/09/19 07:38:51;;;;;;;;;;;;;;;22.54;68.66;99576.69;5014852;28;1597;-68
2021/09/19 07:41:18;;;;;;;;;;;;;;;22.73;67.27;99576.44;5032559;28;921;-69
2021/09/19 07:43:45;;;;;;;;;;;;;;;22.76;67.45;99579.00;5032345;28;878;-68
2021/09/19 07:46:12;;;;;;;;;;;;;;;22.69;66.71;99584.31;5032766;28;827;-68
2021/09/19 07:48:39;;;;;;;;;;;;;;;22.54;65.46;99582.31;5032399;28;920;-68
2021/09/19 07:51:06;;;;;;;;;;;;;;;22.55;66.09;99585.91;5032412;28;877;-68
2021/09/19 07:53:32;;;;;;;;;;;;;;;22.66;64.48;99588.09;5032404;28;1985;-67
2021/09/19 07:55:59;;;;;;;;;;;;;;;22.47;62.75;99588.38;5032259;28;835;-68
2021/09/19 07:58:26;;;;;;;;;;;;;;;22.28;65.25;99592.69;5032270;28;854;-68
2021/09/19 08:00:53;;;;;;;;;;;;;;;22.23;65.43;99596.94;5032234;28;819;-68
2021/09/19 08:03:19;;;;;;;;;;;;;;;22.43;67.02;99594.19;5032124;28;791;-68
2021/09/19 08:05:46;;;;;;;;;;;;;;;22.73;63.87;99587.69;5032198;28;795;-68
2021/09/19 08:08:13;;;;;;;;;;;;;;;23.02;65.58;99584.78;5032060;28;984;-68
2021/09/19 08:10:40;;;;;;;;;;;;;;;23.48;61.90;99571.94;5031778;28;901;-68
2021/09/19 08:13:06;;;;;;;;;;;;;;;23.68;63.72;99579.53;5031900;28;1922;-68
2021/09/19 08:15:33;;;;;;;;;;;;;;;23.91;61.00;99568.50;5032125;28;905;-68
2021/09/19 08:17:59;;;;;;;;;;;;;;;23.80;61.45;99577.63;5031479;28;1239;-68
2021/09/19 08:20:25;;;;;;;;;;;;;;;23.69;60.60;99571.88;5032172;28;1241;-68
2021/09/19 08:22:52;;;;;;;;;;;;;;;23.86;61.02;99572.06;5032212;28;1241;-68
2021/09/19 08:25:20;;;;;;;;;;;;;;;23.96;59.06;99568.53;5014237;28;1430;-68
2021/09/19 08:27:47;;;;;;;;;;;;;;;23.73;59.22;99569.59;5032065;28;1201;-68
2021/09/19 08:30:14;;;;;;;;;;;;;;;23.56;60.58;99573.03;5031984;28;1186;-67
2021/09/19 08:32:41;;;;;;;;;;;;;;;23.58;61.09;99567.66;5032168;28;1977;-68
2021/09/19 08:35:10;;;;;;;;;;;;;;;23.49;62.44;99565.00;5031982;28;862;-68
2021/09/19 08:37:38;;;;;;;;;;;;;;;23.33;59.41;99549.47;5031757;28;862;-67
2021/09/19 08:40:07;;;;;;;;;;;;;;;23.19;58.67;99551.13;5032120;28;1002;-67
2021/09/19 08:42:33;;;;;;;;;;;;;;;23.26;59.82;99551.94;5031578;28;949;-67
2021/09/19 08:45:00;;;;;;;;;;;;;;;23.80;61.02;99552.25;5031625;28;847;-67
2021/09/19 08:47:30;;;;;;;;;;;;;;;24.54;55.65;99548.66;5031889;28;881;-67
2021/09/19 08:49:58;;;;;;;;;;;;;;;25.47;52.96;99545.13;5031640;28;819;-68
2021/09/19 08:52:25;;;;;;;;;;;;;;;25.53;54.24;99538.72;5031446;28;1902;-67
2021/09/19 08:54:52;;;;;;;;;;;;;;;25.39;54.44;99538.44;5031862;28;829;-67
2021/09/19 08:57:18;;;;;;;;;;;;;;;25.18;55.94;99522.97;5031484;28;933;-67
2021/09/19 08:59:48;;;;;;;;;;;;;;;25.16;59.12;99519.88;5031453;28;897;-67
2021/09/19 09:02:15;;;;;;;;;;;;;;;25.19;58.78;99524.50;5031488;28;810;-67
2021/09/19 09:04:43;;;;;;;;;;;;;;;25.31;57.59;99523.25;5031387;28;809;-67
2021/09/19 09:07:12;;;;;;;;;;;;;;;25.03;56.09;99523.94;5031399;28;838;-66
2021/09/19 09:09:39;;;;;;;;;;;;;;;24.84;58.24;99526.44;5031389;28;917;-67
2021/09/19 09:12:07;;;;;;;;;;;;;;;24.81;54.38;99529.50;5031277;28;1897;-66
2021/09/19 09:14:42;;;;;;;;;;;;;;;24.61;57.99;99527.63;5031277;28;843;-66
2021/09/19 09:17:10;;;;;;;;;;;;;;;24.73;55.85;99534.09;5031324;28;1201;-67
2021/09/19 09:19:38;;;;;;;;;;;;;;;24.81;50.04;99540.81;5031204;28;847;-66
2021/09/19 09:22:04;;;;;;;;;;;;;;;24.85;53.05;99525.16;5031300;28;865;-67
2021/09/19 09:24:31;;;;;;;;;;;;;;;25.22;55.14;99526.31;5031220;28;803;-67
2021/09/19 09:26:58;;;;;;;;;;;;;;;25.36;53.07;99527.38;5031171;28;861;-67
2021/09/19 09:29:25;;;;;;;;;;;;;;;25.37;49.39;99517.59;5034448;28;794;-67
2021/09/19 09:31:52;;;;;;;;;;;;;;;25.79;50.28;99513.75;5034964;28;1914;-67
2021/09/19 09:34:20;;;;;;;;;;;;;;;26.03;51.22;99520.97;5034986;28;873;-67
2021/09/19 09:37:02;;;;;;;;;;;;;;;26.05;51.96;99524.06;5034912;28;861;-67
2021/09/19 09:39:31;;;;;;;;;;;;;;;25.80;49.70;99534.38;5034879;28;842;-67
2021/09/19 09:42:00;;;;;;;;;;;;;;;25.56;51.58;99541.31;5034798;28;800;-67
2021/09/19 09:44:30;;;;;;;;;;;;;;;25.59;51.01;99533.84;5034911;28;787;-67
2021/09/19 09:46:57;;;;;;;;;;;;;;;25.46;50.47;99531.50;5034766;28;787;-66
2021/09/19 09:49:43;;;;;;;;;;;;;;;25.30;53.53;99526.59;5034904;28;806;-66
2021/09/19 09:52:17;;;;;;;;;;;;;;;25.22;53.56;99524.28;5034746;28;1949;-66
2021/09/19 09:54:47;;;;;;;;;;;;;;;25.57;49.01;99520.19;5034499;28;811;-67
2021/09/19 09:57:20;;;;;;;;;;;;;;;25.92;47.73;99520.97;5034568;28;846;-66
2021/09/19 09:59:49;;;;;;;;;;;;;;;25.97;47.24;99521.00;5034600;28;815;-66
2021/09/19 10:02:16;;;;;;;;;;;;;;;25.74;48.99;99523.03;5035149;28;810;-67
2021/09/19 10:04:44;;;;;;;;;;;;;;;25.52;47.01;99520.19;5016829;28;1383;-66
2021/09/19 10:07:11;;;;;;;;;;;;;;;25.60;48.00;99518.38;5034877;28;866;-67
2021/09/19 10:09:42;;;;;;;;;;;;;;;25.66;47.57;99522.75;5034519;28;840;-66
2021/09/19 10:12:09;;;;;;;;;;;;;;;25.73;47.50;99515.81;5034087;28;1957;-66
2021/09/19 10:14:36;;;;;;;;;;;;;;;25.80;50.44;99509.66;5034231;28;814;-66
2021/09/19 10:17:03;;;;;;;;;;;;;;;26.04;48.20;99502.69;5034107;28;1231;-67
2021/09/19 10:19:30;;;;;;;;;;;;;;;25.89;47.06;99500.16;5034122;28;877;-67
2021/09/19 10:21:59;;;;;;;;;;;;;;;25.87;48.09;99492.13;5034051;28;894;-66
2021/09/19 10:24:26;;;;;;;;;;;;;;;26.08;48.40;99497.56;5034058;28;870;-65
2021/09/19 10:26:57;;;;;;;;;;;;;;;26.30;44.01;99493.88;5033954;28;898;-65
2021/09/19 10:29:27;;;;;;;;;;;;;;;26.65;45.45;99493.28;5033872;28;800;-66
2021/09/19 10:31:57;;;;;;;;;;;;;;;27.10;40.51;99489.44;5034071;28;1914;-65
2021/09/19 10:34:29;;;;;;;;;;;;;;;27.26;41.30;99488.56;5034105;28;913;-65
2021/09/19 10:36:56;;;;;;;;;;;;;;;27.10;45.58;99483.75;5033942;28;823;-65
2021/09/19 10:39:27;;;;;;;;;;;;;;;27.19;43.28;99479.84;5033532;28;767;-66
2021/09/19 10:42:03;;;;;;;;;;;;;;;27.17;40.50;99483.19;5033529;28;843;-66
2021/09/19 10:44:56;;;;;;;;;;;;;;;27.01;39.83;99476.34;5033890;28;866;-66
2021/09/19 10:50:38;;;;;;;;;;;;;;;27.02;42.13;99462.94;5024692;28;968;-65
2021/09/19 10:53:26;;;;;;;;;;;;;;;27.18;49.26;99467.69;5033448;28;1893;-65
2021/09/19 10:55:54;;;;;;;;;;;;;;;27.08;39.13;99452.31;5033489;28;814;-65
2021/09/19 10:58:23;;;;;;;;;;;;;;;26.66;44.47;99452.28;5033353;28;841;-66
2021/09/19 11:01:08;;;;;;;;;;;;;;;26.61;41.93;99443.84;5033401;28;782;-66
2021/09/19 11:03:35;;;;;;;;;;;;;;;26.80;46.90;99446.81;5033268;28;873;-65
2021/09/19 11:06:02;;;;;;;;;;;;;;;27.18;42.07;99447.84;5033249;28;858;-67
2021/09/19 11:08:38;;;;;;;;;;;;;;;27.07;42.61;99445.09;5033189;28;819;-66
2021/09/19 11:11:08;;;;;;;;;;;;;;;26.43;41.17;99440.25;5033097;28;834;-66
2021/09/19 11:13:38;;;;;;;;;;;;;;;26.42;42.88;99435.91;5033325;28;1965;-65
2021/09/19 11:16:05;;;;;;;;;;;;;;;27.08;43.28;99436.06;5032976;28;1484;-65
2021/09/19 11:18:41;;;;;;;;;;;;;;;27.56;45.50;99436.72;5032772;28;1289;-65
2021/09/19 11:21:14;;;;;;;;;;;;;;;27.89;40.40;99432.84;5033035;28;866;-66
2021/09/19 11:23:45;;;;;;;;;;;;;;;27.90;38.81;99439.28;5033093;28;803;-67
2021/09/19 11:26:22;;;;;;;;;;;;;;;27.94;37.55;99428.41;5032884;28;799;-66
2021/09/19 11:28:50;;;;;;;;;;;;;;;27.95;37.38;99437.69;5032831;28;870;-66
2021/09/19 11:31:19;;;;;;;;;;;;;;;28.12;41.65;99421.22;5032656;28;1194;-66
2021/09/19 11:33:46;;;;;;;;;;;;;;;28.14;40.92;99415.75;5032647;28;1975;-66
2021/09/19 11:36:17;;;;;;;;;;;;;;;27.66;40.50;99417.31;5032857;28;878;-65
2021/09/19 11:38:46;;;;;;;;;;;;;;;27.44;40.83;99421.09;5032570;28;882;-65
2021/09/19 11:41:13;;;;;;;;;;;;;;;27.83;44.27;99411.47;5032461;28;885;-65
2021/09/19 11:43:41;;;;;;;;;;;;;;;28.50;41.22;99407.84;5032544;28;798;-66
2021/09/19 11:46:08;;;;;;;;;;;;;;;28.92;39.08;99405.44;5032461;28;854;-66
2021/09/19 11:48:35;;;;;;;;;;;;;;;28.91;41.79;99395.41;5032353;28;815;-66
2021/09/19 11:51:02;;;;;;;;;;;;;;;28.53;43.30;99388.97;5031877;28;823;-65
2021/09/19 11:53:30;;;;;;;;;;;;;;;28.35;41.84;99386.84;5031898;28;1964;-66
2021/09/19 11:55:57;;;;;;;;;;;;;;;28.48;37.43;99381.25;5032296;28;881;-66
2021/09/19 11:58:24;;;;;;;;;;;;;;;28.42;39.59;99381.34;5032328;28;886;-66
2021/09/19 12:00:56;;;;;;;;;;;;;;;28.68;40.06;99375.06;5032137;28;814;-66
2021/09/19 12:03:27;;;;;;;;;;;;;;;28.91;41.26;99384.00;5032541;28;882;-66
2021/09/19 12:05:55;;;;;;;;;;;;;;;29.10;43.35;99381.16;5032147;28;835;-66
2021/09/19 12:08:22;;;;;;;;;;;;;;;29.24;43.30;99384.03;5032066;28;818;-66
2021/09/19 12:10:52;;;;;;;;;;;;;;;29.65;39.99;99379.94;5031993;28;814;-66
2021/09/19 12:13:23;;;;;;;;;;;;;;;29.74;39.65;99375.94;5031873;28;1894;-66
2021/09/19 12:16:18;;;;;;;;;;;;;;;29.64;36.54;99373.50;5032076;28;928;-66
2021/09/19 12:18:46;;;;;;;;;;;;;;;29.93;36.67;99368.78;5029328;28;1283;-66
2021/09/19 12:21:15;;;;;;;;;;;;;;;30.47;36.84;99363.03;5032754;28;834;-67
2021/09/19 12:23:53;;;;;;;;;;;;;;;30.29;34.91;99356.94;5032047;28;851;-66
2021/09/19 12:26:22;;;;;;;;;;;;;;;29.51;35.30;99345.00;5031812;28;822;-66
2021/09/19 12:28:50;;;;;;;;;;;;;;;28.68;36.34;99345.84;5031770;28;818;-66
2021/09/19 12:31:36;;;;;;;;;;;;;;;28.30;37.83;99351.53;5031726;28;913;-65
2021/09/19 12:34:04;;;;;;;;;;;;;;;29.09;37.85;99344.69;5031701;28;1977;-65
2021/09/19 12:36:40;;;;;;;;;;;;;;;30.13;37.10;99338.88;5031599;28;875;-65
2021/09/19 12:39:11;;;;;;;;;;;;;;;30.03;38.52;99334.19;5031573;28;870;-66
2021/09/19 12:41:39;;;;;;;;;;;;;;;29.80;34.81;99340.31;5031783;28;827;-66
2021/09/19 12:44:05;;;;;;;;;;;;;;;29.55;35.86;99344.66;5031593;28;815;-66
2021/09/19 12:46:32;;;;;;;;;;;;;;;29.21;35.81;99339.59;5031678;28;936;-64
2021/09/19 12:49:02;;;;;;;;;;;;;;;28.33;36.26;99344.75;5031508;28;916;-65
2021/09/19 12:51:29;;;;;;;;;;;;;;;27.39;38.49;99340.41;5031510;28;941;-65
2021/09/19 12:53:56;;;;;;;;;;;;;;;27.02;39.70;99335.31;5031399;28;1949;-65
2021/09/19 12:56:23;;;;;;;;;;;;;;;27.08;42.98;99336.81;5031722;28;889;-66
2021/09/19 12:58:49;;;;;;;;;;;;;;;27.67;41.76;99328.78;5031468;28;846;-66
2021/09/19 13:01:17;;;;;;;;;;;;;;;28.22;39.99;99325.78;5031467;28;803;-66
2021/09/19 13:03:47;;;;;;;;;;;;;;;28.55;36.95;99317.34;5033606;28;811;-66
2021/09/19 13:06:14;;;;;;;;;;;;;;;28.74;38.47;99320.16;5035523;28;827;-65
2021/09/19 13:08:45;;;;;;;;;;;;;;;29.13;38.09;99327.34;5035526;28;886;-65
2021/09/19 13:11:13;;;;;;;;;;;;;;;29.08;39.35;99320.38;5035355;28;917;-66
2021/09/19 13:13:40;;;;;;;;;;;;;;;28.95;40.80;99320.34;5035312;28;1882;-65
2021/09/19 13:16:06;;;;;;;;;;;;;;;28.80;41.13;99313.06;5035439;28;1035;-65